Time;durP1;ratioP1;P1;durP2;ratioP2;P2;SDS_P1;SDS_P2;PMS_P1;PMS_P2;Temp;Humidity;BMP_temperature;BMP_pressure;BME280_temperature;BME280_humidity;BME280_pressure;Samples;Min_cycle;Max_cycle;Signal;HPM_P1;HPM_P2
2023/02/03 00:01:52;;;;;;;47.15;16.10;;;7.50;99.90;;;;;;4995521;28;20460;-76
2023/02/03 00:04:17;;;;;;;37.63;15.05;;;7.50;99.90;;;;;;4993581;28;20028;-77
2023/02/03 00:06:44;;;;;;;42.60;15.45;;;7.50;99.90;;;;;;5000946;28;20042;-75
2023/02/03 00:09:09;;;;;;;44.40;14.45;;;7.50;99.90;;;;;;5001748;28;20033;-76
2023/02/03 00:11:35;;;;;;;42.13;15.35;;;7.60;99.90;;;;;;5003912;28;20524;-78
2023/02/03 00:14:01;;;;;;;40.58;16.20;;;7.60;99.90;;;;;;5020592;28;20057;-75
2023/02/03 00:16:27;;;;;;;46.83;16.23;;;7.60;99.90;;;;;;5019963;28;20030;-77
2023/02/03 00:18:52;;;;;;;36.83;14.60;;;7.60;99.90;;;;;;5003984;28;20089;-77
2023/02/03 00:21:19;;;;;;;36.10;14.68;;;7.60;99.90;;;;;;5002897;28;20126;-75
2023/02/03 00:23:44;;;;;;;37.45;14.70;;;7.60;99.90;;;;;;5003769;28;20498;-78
2023/02/03 00:26:13;;;;;;;43.30;14.23;;;7.60;99.90;;;;;;5004986;28;20050;-75
2023/02/03 00:28:39;;;;;;;40.88;14.93;;;7.60;99.90;;;;;;5003360;28;20034;-76
2023/02/03 00:31:05;;;;;;;33.40;12.73;;;7.60;99.90;;;;;;5003800;28;20030;-76
2023/02/03 00:33:32;;;;;;;34.80;14.30;;;7.60;99.90;;;;;;5003783;28;20798;-75
2023/02/03 00:36:02;;;;;;;34.60;12.48;;;7.60;99.90;;;;;;5005123;28;20037;-75
2023/02/03 00:38:28;;;;;;;33.58;12.30;;;7.60;99.90;;;;;;5003597;28;20041;-79
2023/02/03 00:40:54;;;;;;;31.45;13.23;;;7.60;99.90;;;;;;5001777;28;20030;-74
2023/02/03 00:43:20;;;;;;;31.33;12.20;;;7.60;99.90;;;;;;4992631;28;20062;-76
2023/02/03 00:45:46;;;;;;;37.08;11.55;;;7.60;99.90;;;;;;4992314;28;20046;-77
2023/02/03 00:48:11;;;;;;;28.85;11.07;;;7.60;99.90;;;;;;4994914;28;20026;-78
2023/02/03 00:50:37;;;;;;;25.67;10.85;;;7.60;99.90;;;;;;4993262;28;20037;-75
2023/02/03 00:53:02;;;;;;;31.90;11.02;;;7.60;99.90;;;;;;4992912;28;20081;-76
2023/02/03 00:55:28;;;;;;;24.02;9.85;;;7.60;99.90;;;;;;4993483;28;20392;-79
2023/02/03 00:57:54;;;;;;;21.83;9.15;;;7.70;99.90;;;;;;4994681;28;20058;-77
2023/02/03 01:00:19;;;;;;;26.42;8.70;;;7.60;99.90;;;;;;4996802;28;20050;-75
2023/02/03 01:02:45;;;;;;;26.98;8.50;;;7.70;99.90;;;;;;4997347;28;20061;-75
2023/02/03 01:05:11;;;;;;;23.25;7.90;;;7.70;99.90;;;;;;4995851;28;20089;-77
2023/02/03 01:07:37;;;;;;;24.90;7.97;;;7.70;99.90;;;;;;4995639;28;20082;-79
2023/02/03 01:10:03;;;;;;;17.80;7.20;;;7.70;99.90;;;;;;4991932;28;20037;-76
2023/02/03 01:12:30;;;;;;;23.45;6.72;;;7.60;99.90;;;;;;4991361;28;20086;-76
2023/02/03 01:14:56;;;;;;;20.60;6.72;;;7.70;99.90;;;;;;4998236;28;20034;-76
2023/02/03 01:17:22;;;;;;;22.02;6.93;;;7.60;99.90;;;;;;4991477;28;20049;-78
2023/02/03 01:19:49;;;;;;;11.55;6.22;;;7.70;99.90;;;;;;4993074;28;20042;-77
2023/02/03 01:22:14;;;;;;;22.30;6.63;;;7.70;99.90;;;;;;4989522;28;20076;-78
2023/02/03 01:24:40;;;;;;;15.27;5.85;;;7.70;99.90;;;;;;4990837;28;20061;-73
2023/02/03 01:27:06;;;;;;;16.38;5.18;;;7.70;99.90;;;;;;4993775;28;20039;-74
2023/02/03 01:29:31;;;;;;;16.23;5.95;;;7.70;99.90;;;;;;4993598;28;20022;-74
2023/02/03 01:31:57;;;;;;;13.85;4.45;;;7.70;99.90;;;;;;4996457;28;20022;-73
2023/02/03 01:34:22;;;;;;;12.35;5.10;;;7.80;99.90;;;;;;4997369;28;20046;-76
2023/02/03 01:36:48;;;;;;;12.25;4.38;;;7.70;99.90;;;;;;4995756;28;20087;-75
2023/02/03 01:39:14;;;;;;;24.05;4.63;;;7.80;99.90;;;;;;4996270;28;20049;-76
2023/02/03 01:41:40;;;;;;;13.30;4.78;;;7.80;99.90;;;;;;5000070;28;20031;-75
2023/02/03 01:44:51;;;;;;;12.82;4.45;;;7.80;99.90;;;;;;4996088;28;20034;-76
2023/02/03 01:47:32;;;;;;;16.58;4.55;;;7.80;99.90;;;;;;4997830;28;20043;-77
2023/02/03 01:50:21;;;;;;;14.15;4.30;;;7.80;99.90;;;;;;4996693;28;20023;-76
2023/02/03 01:52:52;;;;;;;14.27;4.05;;;7.80;99.90;;;;;;5001030;28;20034;-75
2023/02/03 01:55:21;;;;;;;17.67;4.53;;;7.80;99.90;;;;;;4998698;28;20495;-79
2023/02/03 01:58:03;;;;;;;10.77;4.32;;;7.80;99.90;;;;;;4995731;28;20046;-76
2023/02/03 02:00:28;;;;;;;12.68;4.45;;;7.80;99.90;;;;;;4996283;28;20045;-75
2023/02/03 02:02:57;;;;;;;14.93;4.60;;;7.80;99.90;;;;;;4996253;28;20030;-80
2023/02/03 02:05:26;;;;;;;10.93;4.05;;;7.80;99.90;;;;;;5000669;28;20033;-74
2023/02/03 02:07:53;;;;;;;18.52;5.00;;;7.80;99.90;;;;;;4996206;28;20077;-74
2023/02/03 02:10:19;;;;;;;15.88;5.05;;;7.80;99.90;;;;;;4995115;28;20023;-73
2023/02/03 02:12:46;;;;;;;14.18;4.57;;;7.80;99.90;;;;;;4995741;28;20049;-74
2023/02/03 02:15:12;;;;;;;15.95;4.70;;;7.80;99.90;;;;;;4996736;28;20034;-73
2023/02/03 02:18:06;;;;;;;14.80;4.97;;;7.80;99.90;;;;;;4998471;28;20463;-73
2023/02/03 02:20:50;;;;;;;14.57;5.22;;;7.80;99.90;;;;;;5000978;28;20034;-73
2023/02/03 02:23:51;;;;;;;16.10;4.72;;;7.80;99.90;;;;;;4992566;28;20019;-73
2023/02/03 02:26:35;;;;;;;14.75;4.63;;;7.80;99.90;;;;;;4996309;28;20026;-75
2023/02/03 02:29:38;;;;;;;18.33;4.90;;;7.90;99.90;;;;;;4996914;28;20031;-74
2023/02/03 02:32:21;;;;;;;8.93;4.43;;;7.90;99.90;;;;;;5015138;28;20038;-77
2023/02/03 02:34:59;;;;;;;22.05;5.38;;;7.90;99.90;;;;;;4995383;28;20395;-71
2023/02/03 02:37:47;;;;;;;13.18;4.40;;;7.90;99.90;;;;;;4996665;28;20967;-71
2023/02/03 02:40:45;;;;;;;14.38;4.50;;;7.90;99.90;;;;;;4994959;28;20098;-74
2023/02/03 02:43:47;;;;;;;11.77;4.25;;;7.90;99.90;;;;;;4996383;28;20035;-75
2023/02/03 02:46:46;;;;;;;13.85;4.70;;;7.90;99.90;;;;;;4996118;28;20031;-73
2023/02/03 02:49:28;;;;;;;13.95;3.97;;;7.90;99.90;;;;;;4996419;28;20101;-75
2023/02/03 02:51:56;;;;;;;15.90;4.50;;;7.90;99.90;;;;;;4996701;28;20755;-74
2023/02/03 02:54:24;;;;;;;12.10;3.80;;;7.90;99.90;;;;;;5000871;28;20033;-75
2023/02/03 02:56:54;;;;;;;8.68;3.95;;;8.00;99.90;;;;;;4998969;28;20046;-73
2023/02/03 02:59:20;;;;;;;10.55;4.55;;;7.90;99.90;;;;;;4994981;28;20022;-72
2023/02/03 03:01:45;;;;;;;9.27;4.07;;;7.80;99.90;;;;;;4998095;28;20145;-73
2023/02/03 03:04:14;;;;;;;9.82;4.13;;;7.80;99.90;;;;;;5006604;28;20042;-72
2023/02/03 03:06:45;;;;;;;11.13;4.30;;;7.80;99.90;;;;;;5005240;28;20062;-72
2023/02/03 03:09:18;;;;;;;13.05;4.78;;;7.80;99.90;;;;;;5006415;28;20038;-77
2023/02/03 03:11:52;;;;;;;11.93;3.78;;;7.80;99.90;;;;;;5004690;28;20022;-74
2023/02/03 03:14:22;;;;;;;17.92;4.30;;;7.80;99.90;;;;;;5004941;28;20030;-73
2023/02/03 03:16:56;;;;;;;9.95;4.40;;;7.90;99.90;;;;;;5006247;28;20034;-74
2023/02/03 03:19:25;;;;;;;19.48;4.57;;;7.90;99.90;;;;;;5006177;28;20037;-73
2023/02/03 03:21:59;;;;;;;8.50;4.25;;;7.90;99.90;;;;;;5020700;28;20034;-74
2023/02/03 03:24:46;;;;;;;11.80;3.92;;;7.90;99.90;;;;;;5004711;28;20062;-73
2023/02/03 03:27:33;;;;;;;18.33;4.70;;;7.90;99.90;;;;;;5006049;28;20735;-74
2023/02/03 03:30:09;;;;;;;10.00;3.95;;;7.90;99.90;;;;;;5005073;28;20097;-76
2023/02/03 03:32:36;;;;;;;12.30;4.07;;;7.90;99.90;;;;;;5004830;28;20100;-75
2023/02/03 03:35:03;;;;;;;10.77;3.80;;;7.90;99.90;;;;;;5004474;28;20046;-75
2023/02/03 03:37:42;;;;;;;15.65;4.10;;;7.90;99.90;;;;;;5004681;28;20145;-75
2023/02/03 03:40:36;;;;;;;9.10;3.67;;;7.90;99.90;;;;;;5004904;28;20025;-74
2023/02/03 03:43:09;;;;;;;13.70;3.97;;;7.90;99.90;;;;;;5005985;28;20035;-74
2023/02/03 03:45:41;;;;;;;9.93;4.23;;;7.90;99.90;;;;;;5005640;28;20041;-73
2023/02/03 03:48:28;;;;;;;20.15;3.85;;;7.90;99.90;;;;;;5005643;28;20027;-75
2023/02/03 03:51:26;;;;;;;13.35;4.57;;;7.90;99.90;;;;;;5005947;28;20034;-73
2023/02/03 03:53:55;;;;;;;10.18;3.25;;;7.90;99.90;;;;;;4997965;28;20159;-74
2023/02/03 03:56:31;;;;;;;12.77;3.80;;;7.90;99.90;;;;;;5005306;28;20069;-71
2023/02/03 03:59:00;;;;;;;12.25;3.92;;;7.90;99.90;;;;;;5005058;28;20022;-71
2023/02/03 04:01:27;;;;;;;11.93;4.18;;;7.90;99.90;;;;;;5005068;28;20030;-74
2023/02/03 04:04:00;;;;;;;21.17;4.18;;;7.90;99.90;;;;;;5005212;28;20050;-71
2023/02/03 04:06:27;;;;;;;9.57;3.75;;;7.90;99.90;;;;;;5003559;28;20062;-73
2023/02/03 04:08:53;;;;;;;13.15;3.70;;;7.90;99.90;;;;;;5004896;28;20103;-72
2023/02/03 04:14:03;;;;;;;13.88;4.07;;;7.90;99.90;;;;;;5004933;28;20041;-74
2023/02/03 04:16:29;;;;;;;15.88;4.88;;;8.00;99.90;;;;;;5003903;28;20049;-69
2023/02/03 04:18:54;;;;;;;16.30;4.18;;;8.00;99.90;;;;;;5004896;28;20026;-74
2023/02/03 04:21:21;;;;;;;14.40;4.20;;;7.90;99.90;;;;;;5003256;28;20026;-73
2023/02/03 04:23:46;;;;;;;10.07;3.78;;;7.90;99.90;;;;;;5004919;28;20042;-72
2023/02/03 04:26:12;;;;;;;14.73;4.07;;;8.00;99.90;;;;;;5004248;28;20129;-73
2023/02/03 04:28:37;;;;;;;14.63;3.92;;;8.00;99.90;;;;;;5003645;28;20526;-75
2023/02/03 04:31:03;;;;;;;20.38;4.57;;;7.90;99.90;;;;;;5004992;28;20026;-72
2023/02/03 04:33:29;;;;;;;11.13;4.30;;;7.90;99.90;;;;;;5003288;28;20026;-76
2023/02/03 04:35:54;;;;;;;16.05;4.35;;;8.00;99.90;;;;;;5004289;28;20026;-75
2023/02/03 04:38:20;;;;;;;15.50;4.88;;;8.00;99.90;;;;;;5003617;28;20026;-73
2023/02/03 04:40:46;;;;;;;10.48;3.67;;;8.00;99.90;;;;;;5004438;28;20035;-73
2023/02/03 04:43:13;;;;;;;13.27;3.90;;;8.00;99.90;;;;;;5002678;28;20058;-74
2023/02/03 04:45:38;;;;;;;18.77;4.60;;;7.90;99.90;;;;;;5003117;28;20047;-73
2023/02/03 04:48:04;;;;;;;11.18;4.00;;;7.90;99.90;;;;;;5003543;28;20073;-75
2023/02/03 04:50:30;;;;;;;18.88;4.20;;;7.90;99.90;;;;;;5002979;28;20402;-75
2023/02/03 04:52:58;;;;;;;15.48;4.10;;;7.90;99.90;;;;;;5004567;28;20034;-73
2023/02/03 04:55:25;;;;;;;16.00;4.50;;;7.80;99.90;;;;;;5003187;28;20035;-74
2023/02/03 04:57:58;;;;;;;13.70;4.20;;;7.80;99.90;;;;;;5002750;28;20046;-76
2023/02/03 05:00:24;;;;;;;17.08;4.45;;;7.80;99.90;;;;;;5003274;28;20042;-76
2023/02/03 05:02:50;;;;;;;20.63;4.80;;;7.80;99.90;;;;;;5002490;28;20042;-72
2023/02/03 05:05:15;;;;;;;22.50;4.03;;;7.80;99.90;;;;;;5004004;28;20050;-74
2023/02/03 05:07:41;;;;;;;15.13;3.75;;;7.80;99.90;;;;;;5003684;28;20076;-73
2023/02/03 05:10:07;;;;;;;15.27;4.15;;;7.90;99.90;;;;;;5004329;28;20031;-76
2023/02/03 05:12:32;;;;;;;16.25;4.28;;;7.90;99.90;;;;;;5002645;28;20034;-74
2023/02/03 05:14:58;;;;;;;21.98;4.65;;;7.90;99.90;;;;;;5001991;28;20049;-75
2023/02/03 05:17:24;;;;;;;17.20;4.13;;;7.90;99.90;;;;;;5002624;28;20036;-74
2023/02/03 05:19:49;;;;;;;16.17;3.67;;;7.90;99.90;;;;;;5002561;28;20122;-75
2023/02/03 05:22:15;;;;;;;13.75;4.35;;;7.90;99.90;;;;;;5002667;28;20054;-73
2023/02/03 05:24:40;;;;;;;23.40;4.90;;;7.90;99.90;;;;;;5003731;28;20030;-71
2023/02/03 05:27:06;;;;;;;20.65;4.50;;;7.90;99.90;;;;;;5003417;28;20069;-76
2023/02/03 05:29:31;;;;;;;19.50;4.50;;;7.90;99.90;;;;;;5003930;28;20026;-73
2023/02/03 05:31:57;;;;;;;16.60;4.80;;;7.90;99.90;;;;;;5003810;28;20030;-73
2023/02/03 05:34:22;;;;;;;20.35;4.65;;;7.90;99.90;;;;;;4997915;28;20039;-74
2023/02/03 05:36:48;;;;;;;16.80;4.85;;;7.90;99.90;;;;;;5001580;28;20043;-75
2023/02/03 05:39:13;;;;;;;15.95;4.85;;;7.90;99.90;;;;;;5002466;28;20030;-76
2023/02/03 05:41:51;;;;;;;15.60;4.57;;;7.90;99.90;;;;;;5001715;28;20069;-76
2023/02/03 05:44:18;;;;;;;16.50;4.90;;;7.90;99.90;;;;;;5002703;28;20054;-76
2023/02/03 05:46:44;;;;;;;14.38;5.53;;;7.90;99.90;;;;;;5002935;28;20081;-74
2023/02/03 05:49:09;;;;;;;18.05;5.30;;;7.80;99.90;;;;;;5002854;28;20073;-78
2023/02/03 05:51:35;;;;;;;16.08;4.95;;;7.90;99.90;;;;;;5003214;28;20042;-75
2023/02/03 05:54:00;;;;;;;15.80;4.78;;;7.80;99.90;;;;;;5001651;28;20037;-75
2023/02/03 05:56:26;;;;;;;19.10;5.35;;;7.80;99.90;;;;;;5001474;28;20649;-78
2023/02/03 05:58:52;;;;;;;20.00;5.78;;;7.90;99.90;;;;;;5002695;28;20030;-81
2023/02/03 06:01:18;;;;;;;19.27;5.30;;;7.90;99.90;;;;;;5003068;28;20065;-74
2023/02/03 06:03:44;;;;;;;22.50;5.95;;;7.80;99.90;;;;;;5002425;28;20033;-75
2023/02/03 06:06:10;;;;;;;19.60;5.47;;;7.80;99.90;;;;;;5003509;28;20034;-73
2023/02/03 06:08:35;;;;;;;25.02;5.60;;;7.80;99.90;;;;;;5002795;28;20114;-74
2023/02/03 06:11:01;;;;;;;18.02;5.78;;;7.80;99.90;;;;;;4997756;28;20045;-74
2023/02/03 06:13:27;;;;;;;21.25;6.38;;;7.80;99.90;;;;;;5002633;28;20022;-75
2023/02/03 06:15:53;;;;;;;19.30;5.85;;;7.90;99.90;;;;;;5002269;28;20062;-76
2023/02/03 06:18:19;;;;;;;16.77;5.80;;;7.80;99.90;;;;;;5003878;28;20094;-78
2023/02/03 06:20:44;;;;;;;18.75;6.30;;;7.80;99.90;;;;;;5005497;28;20030;-74
2023/02/03 06:23:10;;;;;;;18.52;6.15;;;7.80;99.90;;;;;;5005875;28;20038;-76
2023/02/03 06:25:36;;;;;;;26.10;6.47;;;7.90;99.90;;;;;;5005222;28;20030;-74
2023/02/03 06:28:01;;;;;;;22.30;6.15;;;7.90;99.90;;;;;;5006136;28;20030;-73
2023/02/03 06:30:27;;;;;;;23.52;5.72;;;7.90;99.90;;;;;;5007338;28;20081;-74
2023/02/03 06:32:52;;;;;;;19.65;5.75;;;7.90;99.90;;;;;;5005842;28;20038;-73
2023/02/03 06:35:18;;;;;;;21.42;5.78;;;7.90;99.90;;;;;;5005298;28;20026;-74
2023/02/03 06:37:44;;;;;;;19.50;5.70;;;7.90;99.90;;;;;;5021568;28;20034;-74
2023/02/03 06:40:10;;;;;;;26.48;5.93;;;8.00;99.90;;;;;;5023117;28;20034;-76
2023/02/03 06:42:36;;;;;;;15.85;5.05;;;8.00;99.90;;;;;;5009030;28;20030;-74
2023/02/03 06:45:03;;;;;;;17.23;5.53;;;8.00;99.90;;;;;;5002561;28;20035;-76
2023/02/03 06:47:28;;;;;;;20.08;5.25;;;8.10;99.90;;;;;;4997530;28;20035;-74
2023/02/03 06:49:54;;;;;;;19.55;5.10;;;8.10;99.90;;;;;;4999345;28;20039;-72
2023/02/03 06:52:19;;;;;;;21.77;4.90;;;8.10;99.90;;;;;;4993212;28;20468;-72
2023/02/03 06:54:45;;;;;;;16.10;5.32;;;8.20;99.90;;;;;;4990501;28;20034;-72
2023/02/03 06:57:10;;;;;;;21.17;4.55;;;8.20;99.90;;;;;;4989544;28;20125;-72
2023/02/03 06:59:36;;;;;;;15.95;4.70;;;8.30;99.90;;;;;;4994455;28;20039;-72
2023/02/03 07:02:02;;;;;;;19.02;4.90;;;8.30;99.90;;;;;;4991579;28;20039;-73
2023/02/03 07:04:29;;;;;;;16.83;4.70;;;8.30;99.90;;;;;;4993101;28;20064;-72
2023/02/03 07:06:55;;;;;;;17.00;4.63;;;8.40;99.90;;;;;;5004037;28;20049;-72
2023/02/03 07:09:21;;;;;;;18.98;4.60;;;8.40;99.90;;;;;;5006265;28;20030;-73
2023/02/03 07:11:46;;;;;;;28.25;4.25;;;8.40;99.90;;;;;;4988061;28;20177;-72
2023/02/03 07:14:12;;;;;;;14.57;4.28;;;8.50;99.90;;;;;;4990763;28;20035;-71
2023/02/03 07:16:37;;;;;;;18.33;4.38;;;8.50;99.90;;;;;;5000091;28;20037;-72
2023/02/03 07:19:04;;;;;;;16.33;4.28;;;8.50;99.90;;;;;;5001587;28;20042;-72
2023/02/03 07:21:29;;;;;;;19.35;4.25;;;8.60;99.90;;;;;;5000772;28;20026;-73
2023/02/03 07:23:55;;;;;;;17.13;4.32;;;8.60;99.90;;;;;;5003676;28;20567;-71
2023/02/03 07:26:25;;;;;;;16.10;4.07;;;8.60;99.90;;;;;;5003649;28;20062;-71
2023/02/03 07:28:51;;;;;;;13.18;3.63;;;8.60;99.90;;;;;;5001941;28;20050;-72
2023/02/03 07:31:17;;;;;;;22.30;4.97;;;8.70;99.90;;;;;;5003880;28;20029;-73
2023/02/03 07:33:43;;;;;;;15.73;3.63;;;8.70;99.90;;;;;;5005964;28;20030;-73
2023/02/03 07:36:09;;;;;;;22.17;3.95;;;8.70;99.90;;;;;;5005944;28;20039;-72
2023/02/03 07:38:36;;;;;;;14.35;3.75;;;8.70;99.90;;;;;;5005885;28;20026;-70
2023/02/03 07:41:03;;;;;;;17.95;4.07;;;8.70;99.90;;;;;;5005946;28;20425;-72
2023/02/03 07:43:28;;;;;;;16.58;3.80;;;8.70;99.90;;;;;;5005824;28;20018;-73
2023/02/03 07:45:54;;;;;;;23.90;4.00;;;8.80;99.90;;;;;;5005348;28;20073;-74
2023/02/03 07:48:20;;;;;;;21.25;4.32;;;8.80;99.90;;;;;;5005432;28;20027;-75
2023/02/03 07:50:47;;;;;;;18.23;3.67;;;8.80;99.90;;;;;;5002696;28;20095;-73
2023/02/03 07:53:12;;;;;;;17.17;4.10;;;8.90;99.90;;;;;;5002813;28;20474;-72
2023/02/03 07:55:39;;;;;;;17.63;4.22;;;8.80;99.90;;;;;;5002754;28;20041;-73
2023/02/03 07:58:05;;;;;;;12.80;3.80;;;9.00;99.90;;;;;;5004822;28;20430;-73
2023/02/03 08:00:31;;;;;;;17.98;3.55;;;8.90;99.90;;;;;;5005169;28;20045;-71
2023/02/03 08:02:56;;;;;;;16.60;3.85;;;8.90;99.90;;;;;;5004394;28;20039;-74
2023/02/03 08:05:22;;;;;;;18.77;3.60;;;9.00;99.90;;;;;;5005030;28;20069;-73
2023/02/03 08:07:47;;;;;;;20.08;4.43;;;9.00;99.90;;;;;;5005063;28;20022;-73
2023/02/03 08:10:15;;;;;;;18.23;3.97;;;9.00;99.90;;;;;;5003609;28;20034;-72
2023/02/03 08:12:42;;;;;;;17.60;3.83;;;8.90;99.90;;;;;;5004320;28;20551;-71
2023/02/03 08:15:08;;;;;;;26.10;4.55;;;8.90;99.90;;;;;;4997922;28;20034;-72
2023/02/03 08:17:34;;;;;;;24.95;4.80;;;8.80;99.90;;;;;;4986971;28;20058;-73
2023/02/03 08:19:59;;;;;;;23.73;4.20;;;8.70;99.90;;;;;;4985271;28;20022;-76
2023/02/03 08:22:25;;;;;;;20.27;4.53;;;8.60;99.90;;;;;;4985522;28;20097;-74
2023/02/03 08:24:51;;;;;;;22.58;4.25;;;8.60;99.90;;;;;;4984559;28;20039;-74
2023/02/03 08:27:22;;;;;;;26.00;4.80;;;8.60;99.90;;;;;;5004980;28;20046;-73
2023/02/03 08:29:48;;;;;;;30.73;4.55;;;8.50;99.90;;;;;;5004440;28;20026;-73
2023/02/03 08:32:17;;;;;;;19.65;4.18;;;8.60;99.90;;;;;;5003014;28;20026;-77
2023/02/03 08:34:43;;;;;;;24.63;4.70;;;8.50;99.90;;;;;;4999460;28;20030;-74
2023/02/03 08:37:11;;;;;;;30.35;4.80;;;8.60;99.90;;;;;;4989366;28;20046;-74
2023/02/03 08:39:37;;;;;;;29.30;4.93;;;8.60;99.90;;;;;;4990267;28;20094;-72
2023/02/03 08:42:04;;;;;;;28.15;5.88;;;8.60;99.90;;;;;;4998280;28;20035;-76
2023/02/03 08:44:30;;;;;;;38.97;5.47;;;8.70;99.90;;;;;;4993911;28;20048;-75
2023/02/03 08:46:58;;;;;;;30.02;5.00;;;8.70;99.90;;;;;;4999928;28;20082;-72
2023/02/03 08:49:25;;;;;;;30.08;4.70;;;8.80;99.90;;;;;;5000760;28;20094;-73
2023/02/03 08:51:51;;;;;;;22.33;4.43;;;8.80;99.90;;;;;;5004688;28;20092;-71
2023/02/03 08:54:17;;;;;;;31.60;3.75;;;8.80;99.90;;;;;;5003795;28;20078;-75
2023/02/03 08:56:44;;;;;;;19.73;3.47;;;8.30;99.90;;;;;;4989298;28;20103;-76
2023/02/03 08:59:10;;;;;;;27.20;3.40;;;7.90;99.90;;;;;;4985127;28;20038;-73
2023/02/03 09:01:35;;;;;;;15.18;2.45;;;7.60;99.90;;;;;;4985728;28;20044;-73
2023/02/03 09:04:02;;;;;;;13.80;2.65;;;7.50;99.90;;;;;;5003236;28;20094;-74
2023/02/03 09:06:29;;;;;;;21.48;2.90;;;7.40;99.90;;;;;;5004183;28;20132;-74
2023/02/03 09:08:55;;;;;;;30.38;4.53;;;7.50;99.90;;;;;;5006590;28;20082;-76
2023/02/03 09:11:21;;;;;;;26.38;4.32;;;7.50;99.90;;;;;;5004611;28;20053;-77
2023/02/03 09:13:47;;;;;;;28.05;4.25;;;7.60;99.90;;;;;;5004921;28;20030;-74
2023/02/03 09:16:16;;;;;;;29.60;5.30;;;7.60;99.90;;;;;;4996140;28;20466;-75
2023/02/03 09:18:42;;;;;;;27.52;4.55;;;7.80;99.90;;;;;;5001032;28;20384;-73
2023/02/03 09:21:15;;;;;;;35.83;5.43;;;7.90;99.90;;;;;;5003139;28;20042;-73
2023/02/03 09:23:42;;;;;;;33.75;5.65;;;8.00;99.90;;;;;;5001988;28;20037;-72
2023/02/03 09:26:11;;;;;;;35.25;5.55;;;8.00;99.90;;;;;;5002726;28;20070;-72
2023/02/03 09:28:37;;;;;;;37.35;5.45;;;8.10;99.90;;;;;;5003802;28;20041;-70
2023/02/03 09:31:05;;;;;;;31.85;4.65;;;8.20;99.90;;;;;;5006050;28;20037;-73
2023/02/03 09:33:31;;;;;;;39.50;5.68;;;8.20;99.90;;;;;;5003266;28;20636;-72
2023/02/03 09:35:57;;;;;;;41.05;5.10;;;8.30;99.90;;;;;;5003141;28;20042;-74
2023/02/03 09:38:23;;;;;;;36.13;5.22;;;8.40;99.90;;;;;;5001264;28;20060;-74
2023/02/03 09:40:55;;;;;;;34.42;5.53;;;8.40;99.90;;;;;;4999886;28;20053;-70
2023/02/03 09:43:33;;;;;;;41.20;5.03;;;8.50;99.90;;;;;;4999530;28;20054;-73
2023/02/03 09:46:09;;;;;;;40.13;6.05;;;8.60;99.90;;;;;;4992793;28;20074;-74
2023/02/03 09:48:40;;;;;;;36.33;5.45;;;8.60;99.90;;;;;;5001554;28;20057;-73
2023/02/03 09:51:15;;;;;;;45.15;6.40;;;8.70;99.90;;;;;;5003184;28;20402;-71
2023/02/03 09:53:51;;;;;;;35.28;5.50;;;8.80;99.90;;;;;;5005813;28;20329;-73
2023/02/03 09:56:30;;;;;;;34.00;5.28;;;8.90;99.90;;;;;;5005804;28;20062;-71
2023/02/03 09:58:56;;;;;;;39.97;5.13;;;9.00;99.90;;;;;;5007209;28;20031;-72
2023/02/03 10:01:36;;;;;;;36.50;5.40;;;9.00;99.90;;;;;;5007378;28;20391;-74
2023/02/03 10:04:36;;;;;;;36.10;5.60;;;9.00;99.90;;;;;;5006744;28;20048;-72
2023/02/03 10:07:13;;;;;;;31.60;5.32;;;9.00;99.90;;;;;;5005772;28;20042;-73
2023/02/03 10:09:49;;;;;;;36.22;4.57;;;9.10;99.90;;;;;;5004998;28;20383;-73
2023/02/03 10:12:55;;;;;;;28.85;5.35;;;9.20;99.90;;;;;;5000589;28;20578;-71
2023/02/03 10:15:38;;;;;;;34.45;5.35;;;9.20;99.90;;;;;;5002599;28;20062;-73
2023/02/03 10:18:11;;;;;;;39.65;6.20;;;9.40;99.90;;;;;;5000485;28;20031;-72
2023/02/03 10:20:48;;;;;;;46.47;5.97;;;9.50;99.90;;;;;;5006431;28;20034;-71
2023/02/03 10:23:32;;;;;;;41.10;5.75;;;9.60;99.90;;;;;;5006624;28;20050;-71
2023/02/03 10:26:01;;;;;;;40.58;6.22;;;9.60;99.90;;;;;;5005927;28;20034;-71
2023/02/03 10:28:36;;;;;;;37.80;6.15;;;9.70;99.90;;;;;;5006045;28;20060;-71
2023/02/03 10:31:12;;;;;;;51.85;11.13;;;9.70;99.90;;;;;;5007241;28;20034;-72
2023/02/03 10:33:37;;;;;;;47.20;6.93;;;9.80;99.90;;;;;;5007146;28;20100;-72
2023/02/03 10:36:20;;;;;;;38.35;6.65;;;9.80;99.90;;;;;;5007295;28;20030;-73
2023/02/03 10:39:02;;;;;;;40.03;6.15;;;9.90;99.90;;;;;;4999146;28;20484;-72
2023/02/03 10:41:29;;;;;;;43.80;6.55;;;9.80;99.90;;;;;;5005834;28;20038;-71
2023/02/03 10:43:55;;;;;;;42.67;6.32;;;9.80;99.90;;;;;;5004993;28;20031;-73
2023/02/03 10:46:28;;;;;;;40.58;5.63;;;9.80;99.90;;;;;;5001532;28;20498;-74
2023/02/03 10:48:54;;;;;;;44.55;6.40;;;9.70;99.90;;;;;;4998274;28;20030;-72
2023/02/03 10:51:30;;;;;;;33.72;5.63;;;9.60;99.90;;;;;;5005080;28;20045;-71
2023/02/03 10:53:56;;;;;;;40.97;6.13;;;9.50;99.90;;;;;;5005204;28;20085;-70
2023/02/03 10:56:37;;;;;;;34.72;5.90;;;9.50;99.90;;;;;;5003021;28;20054;-72
2023/02/03 10:59:03;;;;;;;43.63;6.68;;;9.40;99.90;;;;;;4994497;28;20093;-75
2023/02/03 11:01:45;;;;;;;43.85;7.10;;;9.40;99.90;;;;;;4999903;28;20498;-72
2023/02/03 11:04:27;;;;;;;42.42;6.43;;;9.40;99.90;;;;;;4997416;28;20030;-71
2023/02/03 11:06:56;;;;;;;53.88;8.63;;;9.40;99.90;;;;;;4989828;28;20118;-73
2023/02/03 11:09:48;;;;;;;47.67;6.53;;;9.40;99.90;;;;;;5003886;28;20026;-73
2023/02/03 11:12:18;;;;;;;42.30;7.25;;;9.40;99.90;;;;;;5002771;28;20069;-73
2023/02/03 11:14:51;;;;;;;41.13;6.75;;;9.40;99.90;;;;;;5004669;28;20030;-73
2023/02/03 11:17:22;;;;;;;54.28;6.88;;;9.40;99.90;;;;;;5001942;28;20031;-71
2023/02/03 11:19:50;;;;;;;49.53;6.40;;;9.40;99.90;;;;;;5005214;28;20018;-71
2023/02/03 11:22:48;;;;;;;40.90;7.13;;;9.50;99.90;;;;;;5005966;28;20034;-72
2023/02/03 11:25:28;;;;;;;33.20;6.38;;;9.60;99.90;;;;;;4993518;28;20051;-74
2023/02/03 11:27:55;;;;;;;36.75;6.38;;;9.80;99.90;;;;;;4984515;28;20038;-71
2023/02/03 11:30:28;;;;;;;32.95;5.78;;;10.10;99.90;;;;;;4985594;28;20109;-73
2023/02/03 11:32:54;;;;;;;39.45;6.55;;;10.30;99.90;;;;;;4990020;28;20387;-71
2023/02/03 11:35:23;;;;;;;39.95;6.35;;;10.30;99.90;;;;;;5001488;28;20049;-72
2023/02/03 11:37:54;;;;;;;48.40;6.57;;;10.00;99.90;;;;;;4986287;28;20073;-71
2023/02/03 11:40:19;;;;;;;40.60;5.78;;;9.80;99.90;;;;;;4985790;28;20027;-70
2023/02/03 11:43:30;;;;;;;42.40;6.03;;;9.80;99.90;;;;;;5000583;28;20033;-72
2023/02/03 11:46:01;;;;;;;30.75;4.93;;;9.70;99.90;;;;;;4988536;28;20046;-72
2023/02/03 11:48:32;;;;;;;36.13;6.88;;;9.70;99.90;;;;;;5004261;28;20092;-73
2023/02/03 11:50:59;;;;;;;43.60;6.25;;;9.60;99.90;;;;;;5004157;28;20141;-72
2023/02/03 11:53:48;;;;;;;37.33;4.68;;;9.60;99.90;;;;;;5004980;28;20096;-70
2023/02/03 11:56:27;;;;;;;38.10;5.30;;;9.40;99.90;;;;;;5004867;28;20086;-73
2023/02/03 11:59:29;;;;;;;34.10;5.15;;;9.40;99.90;;;;;;5005368;28;20057;-72
2023/02/03 12:02:05;;;;;;;30.98;5.63;;;9.30;99.90;;;;;;5004166;28;20479;-72
2023/02/03 12:04:49;;;;;;;39.97;5.97;;;9.30;99.90;;;;;;5004207;28;20112;-70
2023/02/03 12:07:34;;;;;;;27.08;4.32;;;9.30;99.90;;;;;;5005030;28;20046;-75
2023/02/03 12:10:12;;;;;;;35.17;4.82;;;9.40;99.90;;;;;;5003920;28;20142;-73
2023/02/03 12:12:44;;;;;;;44.80;5.20;;;9.40;99.90;;;;;;5005584;28;20038;-73
2023/02/03 12:15:39;;;;;;;26.20;4.90;;;9.30;99.90;;;;;;5005338;28;20053;-73
2023/02/03 12:18:23;;;;;;;35.22;4.80;;;9.30;99.90;;;;;;5004129;28;20066;-71
2023/02/03 12:21:07;;;;;;;43.78;5.20;;;9.30;99.90;;;;;;5003954;28;20042;-71
2023/02/03 12:24:01;;;;;;;35.92;5.57;;;9.30;99.90;;;;;;5000477;28;20049;-70
2023/02/03 12:26:50;;;;;;;32.35;4.28;;;9.30;99.90;;;;;;4985253;28;20047;-71
2023/02/03 12:29:37;;;;;;;31.98;4.57;;;9.40;99.90;;;;;;4984801;28;20074;-73
2023/02/03 12:32:27;;;;;;;34.83;5.57;;;9.40;99.90;;;;;;4985683;28;20759;-73
2023/02/03 12:34:55;;;;;;;35.47;4.70;;;9.30;99.90;;;;;;4986039;28;20035;-73
2023/02/03 12:37:31;;;;;;;32.80;5.28;;;9.30;99.90;;;;;;5003629;28;20121;-72
2023/02/03 12:40:06;;;;;;;36.17;4.80;;;9.20;99.90;;;;;;4988216;28;20042;-73
2023/02/03 12:42:35;;;;;;;;;;;9.20;99.90;;;;;;4995351;28;20030;-72
2023/02/03 12:45:10;;;;;;;39.22;4.47;;;9.20;99.90;;;;;;4996014;28;19909;-71
2023/02/03 12:47:44;;;;;;;47.35;5.45;;;9.10;99.90;;;;;;4997959;28;20060;-72
2023/02/03 12:50:34;;;;;;;44.30;5.75;;;9.10;99.90;;;;;;5004640;28;20057;-70
2023/02/03 12:53:10;;;;;;;34.42;4.47;;;9.10;99.90;;;;;;5004084;28;20069;-75
2023/02/03 12:55:36;;;;;;;39.38;5.80;;;9.10;99.90;;;;;;5004251;28;20034;-72
2023/02/03 12:58:06;;;;;;;33.83;4.72;;;9.00;99.90;;;;;;5003996;28;20050;-74
2023/02/03 13:00:45;;;;;;;26.13;4.60;;;9.00;99.90;;;;;;4995082;28;20501;-71
2023/02/03 13:03:25;;;;;;;74.97;20.65;;;9.00;99.90;;;;;;4996478;28;20969;-71
2023/02/03 13:05:54;;;;;;;39.17;7.15;;;8.90;99.90;;;;;;5004230;28;20092;-73
2023/02/03 13:08:23;;;;;;;29.15;5.10;;;8.90;99.90;;;;;;4999651;28;20031;-72